»·PEaware :: SWA4045 KSJC-KBUR

SWA4045 :: KSJC-KBUR

FLIGHT INFORMATION

Flight Status: Arrived
Operator:
Southwest Airlines
More flights by this operator :: More flights under this callsign
Pilot: Tim M. (868)
Aircraft: BOEING 737-700
(B737)
More flights by this aircraft type
Origin: KSJC Mineta San Jose Intl
United States
Destination: KBUR Bob Hope-Burbank
United States
More flights between these airports :: More routes between these airports
Route: TECKY3 EBAYE BURGL HONZK ROKKR2
File this flight plan on PilotEdge
Remarks:
Altitude:
(Current/Filed)
29,000ft
Speed:
(Current/Filed)
471kts
Departed: 07-Nov-20 03:41 PM
Arrived: 07-Nov-20 04:31 PM
Distance/Time
Traveled:
258nm/0:50
Distance/Time
To Go:
Arrived

Flight Plot

Page will automatically refresh every two minutes.

Flight plan parsing failed; only flown route is shown


Map Options




Map Legend


Flown Route
Filed Route
Departure Airport
Arrival Airport
Navaid (VOR, NDB)
Fix

Horizontal Profiles

Position Reports

Time Latitude Longitude Heading Altitude Ground
Speed
07-Nov-20 15:10 37.363969 -121.924361 48 64ft 0kts
07-Nov-20 15:11 37.363969 -121.924361 48 64ft 0kts
07-Nov-20 15:12 37.363969 -121.924361 48 64ft 0kts
07-Nov-20 15:13 37.363969 -121.924361 48 64ft 0kts
07-Nov-20 15:14 37.363969 -121.924361 48 64ft 0kts
07-Nov-20 15:15 37.363969 -121.924361 48 64ft 0kts
07-Nov-20 15:16 37.363969 -121.924361 48 64ft 0kts
07-Nov-20 15:16 37.363969 -121.924361 48 64ft 0kts
07-Nov-20 15:17 37.363969 -121.924361 48 64ft 0kts
07-Nov-20 15:18 37.363969 -121.924361 48 64ft 0kts
07-Nov-20 15:19 37.363969 -121.924361 48 64ft 0kts
07-Nov-20 15:20 37.363969 -121.924361 48 64ft 0kts
07-Nov-20 15:21 37.363969 -121.924361 48 64ft 0kts
07-Nov-20 15:22 37.363969 -121.924361 48 64ft 0kts
07-Nov-20 15:23 37.363969 -121.924361 48 64ft 0kts
07-Nov-20 15:24 37.363969 -121.924361 48 64ft 0kts
07-Nov-20 15:25 37.363969 -121.924361 48 64ft 0kts
07-Nov-20 15:26 37.363969 -121.924361 48 64ft 0kts
07-Nov-20 15:27 37.363969 -121.924361 48 64ft 0kts
07-Nov-20 15:28 37.363969 -121.924361 48 64ft 0kts
07-Nov-20 15:29 37.363969 -121.924361 48 64ft 0kts
07-Nov-20 15:30 37.363869 -121.924515 50 64ft 2kts
07-Nov-20 15:31 37.363638 -121.925153 137 64ft 2kts
07-Nov-20 15:32 37.363839 -121.925372 138 64ft 0kts
07-Nov-20 15:33 37.363839 -121.925372 138 64ft 0kts
07-Nov-20 15:34 37.363839 -121.925372 138 64ft 0kts
07-Nov-20 15:35 37.363838 -121.925371 138 64ft 0kts
07-Nov-20 15:36 37.360503 -121.921717 138 64ft 18kts
07-Nov-20 15:37 37.357074 -121.917952 138 64ft 16kts
07-Nov-20 15:38 37.353957 -121.914531 139 64ft 12kts
07-Nov-20 15:39 37.353350 -121.916445 318 64ft 25kts
07-Nov-20 15:40 37.378081 -121.942027 319 822ft 150kts
07-Nov-20 15:41 37.415018 -121.976288 354 2283ft 207kts
07-Nov-20 15:42 37.439642 -121.915810 123 4455ft 272kts
07-Nov-20 15:43 37.377437 -121.857301 127 4994ft 280kts
07-Nov-20 15:44 37.325970 -121.784695 132 5004ft 277kts
07-Nov-20 15:45 37.267569 -121.717842 137 7955ft 292kts
07-Nov-20 15:46 37.204936 -121.647397 137 11343ft 321kts
07-Nov-20 15:47 37.133940 -121.567404 136 14424ft 356kts
07-Nov-20 15:48 37.057899 -121.481772 135 17875ft 379kts
07-Nov-20 15:49 36.974856 -121.393579 136 19233ft 399kts
07-Nov-20 15:50 36.888516 -121.302052 134 22283ft 419kts
07-Nov-20 15:51 36.797444 -121.204688 133 24826ft 441kts
07-Nov-20 15:52 36.711854 -121.114235 134 26775ft 460kts
07-Nov-20 15:53 36.613601 -121.010844 134 28791ft 466kts
07-Nov-20 15:54 36.513508 -120.908946 136 28823ft 462kts
07-Nov-20 15:55 36.414261 -120.808657 137 28826ft 458kts
07-Nov-20 15:56 36.315773 -120.708982 137 28826ft 455kts
07-Nov-20 15:57 36.218442 -120.610597 138 28831ft 451kts
07-Nov-20 15:58 36.133535 -120.525272 139 28830ft 448kts
07-Nov-20 15:59 36.049277 -120.440510 140 28829ft 445kts
07-Nov-20 16:00 35.953044 -120.344586 141 28828ft 444kts
07-Nov-20 16:01 35.856423 -120.250851 146 28828ft 442kts
07-Nov-20 16:02 35.750964 -120.171847 149 28828ft 442kts
07-Nov-20 16:03 35.644147 -120.097702 158 28828ft 442kts
07-Nov-20 16:04 35.528431 -120.045346 161 28831ft 444kts
07-Nov-20 16:05 35.411915 -119.992690 161 28834ft 444kts
07-Nov-20 16:06 35.297788 -119.940769 162 28838ft 437kts
07-Nov-20 16:07 35.191298 -119.892805 162 28838ft 438kts
07-Nov-20 16:08 35.098804 -119.844419 151 28075ft 440kts
07-Nov-20 16:09 35.002777 -119.749199 141 25190ft 441kts
07-Nov-20 16:10 34.914199 -119.658514 142 22856ft 404kts
07-Nov-20 16:11 34.836271 -119.561373 130 20681ft 401kts
07-Nov-20 16:12 34.774626 -119.469146 131 18831ft 389kts
07-Nov-20 16:13 34.708565 -119.368137 131 17150ft 376kts
07-Nov-20 16:14 34.652044 -119.282160 131 15586ft 367kts
07-Nov-20 16:15 34.604589 -119.190257 122 14016ft 355kts
07-Nov-20 16:16 34.554003 -119.089149 123 12318ft 343kts
07-Nov-20 16:17 34.485002 -119.014645 144 10835ft 324kts
07-Nov-20 16:18 34.418152 -118.952339 141 9747ft 271kts
07-Nov-20 16:19 34.373142 -118.891338 103 8715ft 237kts
07-Nov-20 16:20 34.345541 -118.835380 150 7694ft 229kts
07-Nov-20 16:21 34.291058 -118.796081 151 6592ft 229kts
07-Nov-20 16:22 34.250745 -118.766708 151 5828ft 228kts
07-Nov-20 16:23 34.200494 -118.728341 136 4950ft 221kts
07-Nov-20 16:24 34.190946 -118.656272 92 4013ft 221kts
07-Nov-20 16:25 34.192647 -118.593224 82 4023ft 221kts
07-Nov-20 16:26 34.202326 -118.522212 85 3513ft 202kts
07-Nov-20 16:27 34.199168 -118.466811 93 2452ft 152kts
07-Nov-20 16:28 34.198373 -118.419121 90 1570ft 136kts
07-Nov-20 16:29 34.197725 -118.381437 85 1011ft 122kts
07-Nov-20 16:30 34.197657 -118.353104 104 729ft 6kts
07-Nov-20 16:31 34.196872 -118.352387 181 729ft 1kts

Navigation Log

Ident Type
Flight plan parsing failed, navigation log unavailable